createdAt,value
2023-05-24T00:01:45.885Z,0
2023-05-24T00:04:12.001Z,0
2023-05-24T00:06:38.073Z,0
2023-05-24T00:09:04.171Z,0
2023-05-24T00:11:30.272Z,0
2023-05-24T00:13:56.368Z,0
2023-05-24T00:16:22.484Z,0
2023-05-24T00:18:47.563Z,0
2023-05-24T00:21:13.663Z,0
2023-05-24T00:23:39.800Z,0
2023-05-24T00:26:05.854Z,0
2023-05-24T00:28:31.942Z,0
2023-05-24T00:30:58.058Z,0
2023-05-24T00:33:24.209Z,0
2023-05-24T00:35:50.224Z,0
2023-05-24T00:38:16.319Z,0
2023-05-24T00:40:42.426Z,0
2023-05-24T00:43:28.344Z,0
2023-05-24T00:45:34.603Z,0
2023-05-24T00:48:00.708Z,0
2023-05-24T00:50:25.812Z,0
2023-05-24T00:52:51.916Z,0
2023-05-24T00:55:18.007Z,0
2023-05-24T00:57:44.204Z,0
2023-05-24T01:00:10.202Z,0
2023-05-24T01:02:36.291Z,0
2023-05-24T01:05:02.447Z,0
2023-05-24T01:07:28.502Z,0
2023-05-24T01:09:54.588Z,0
2023-05-24T01:12:20.692Z,0
2023-05-24T01:14:46.799Z,0
2023-05-24T01:17:12.866Z,0
2023-05-24T01:19:38.968Z,0
2023-05-24T01:22:04.099Z,0
2023-05-24T01:24:30.157Z,0
2023-05-24T01:26:56.255Z,0
2023-05-24T01:29:22.367Z,0
2023-05-24T01:31:48.461Z,0
2023-05-24T01:34:14.563Z,0
2023-05-24T01:36:40.657Z,0
2023-05-24T01:39:06.735Z,0
2023-05-24T01:41:32.844Z,0
2023-05-24T01:43:58.939Z,0
2023-05-24T01:46:25.030Z,0
2023-05-24T01:48:51.131Z,0
2023-05-24T01:51:17.290Z,0
2023-05-24T01:53:42.340Z,0
2023-05-24T01:56:08.424Z,0
2023-05-24T01:58:34.532Z,0
2023-05-24T02:01:00.614Z,0
2023-05-24T02:03:26.728Z,0
2023-05-24T02:05:52.796Z,0
2023-05-24T02:08:18.893Z,0
2023-05-24T02:10:44.994Z,0
2023-05-24T02:13:11.099Z,0
2023-05-24T02:15:37.187Z,0
2023-05-24T02:18:03.312Z,0
2023-05-24T02:20:29.391Z,0
2023-05-24T02:22:55.471Z,0
2023-05-24T02:25:20.576Z,0
2023-05-24T02:27:46.676Z,0
2023-05-24T02:30:12.824Z,0
2023-05-24T02:32:38.865Z,0
2023-05-24T02:35:04.986Z,0
2023-05-24T02:37:30.091Z,0
2023-05-24T02:39:56.197Z,0
2023-05-24T02:42:22.269Z,0
2023-05-24T02:44:48.376Z,0
2023-05-24T02:47:14.476Z,0
2023-05-24T02:49:40.596Z,0
2023-05-24T02:52:06.649Z,0
2023-05-24T02:54:32.753Z,0
2023-05-24T02:56:58.834Z,0
2023-05-24T02:59:24.929Z,0
2023-05-24T03:01:51.016Z,4
2023-05-24T03:04:17.113Z,0
2023-05-24T03:06:43.209Z,8
2023-05-24T03:09:08.326Z,8
2023-05-24T03:11:34.423Z,8
2023-05-24T03:14:00.520Z,16
2023-05-24T03:16:26.599Z,20
2023-05-24T03:18:52.697Z,24
2023-05-24T03:21:18.804Z,32
2023-05-24T03:23:44.896Z,40
2023-05-24T03:26:10.998Z,48
2023-05-24T03:28:37.101Z,60
2023-05-24T03:31:03.229Z,76
2023-05-24T03:33:29.335Z,84
2023-05-24T03:35:55.371Z,104
2023-05-24T03:38:21.464Z,128
2023-05-24T03:40:46.594Z,156
2023-05-24T03:43:12.685Z,176
2023-05-24T03:45:38.779Z,200
2023-05-24T03:48:04.862Z,228
2023-05-24T03:50:30.958Z,252
2023-05-24T03:52:57.057Z,301
2023-05-24T03:55:23.161Z,357
2023-05-24T03:57:49.241Z,421
2023-05-24T04:00:15.348Z,493
2023-05-24T04:02:41.439Z,558
2023-05-24T04:05:07.533Z,630
2023-05-24T04:07:33.620Z,706
2023-05-24T04:09:59.716Z,783
2023-05-24T04:12:24.834Z,859
2023-05-24T04:14:50.919Z,915
2023-05-24T04:17:17.023Z,979
2023-05-24T04:19:43.135Z,1060
2023-05-24T04:22:09.212Z,1160
2023-05-24T04:24:35.514Z,1264
2023-05-24T04:27:01.441Z,1365
2023-05-24T04:29:27.496Z,1401
2023-05-24T04:31:53.587Z,1413
2023-05-24T04:34:19.685Z,1381
2023-05-24T04:36:45.786Z,1453
2023-05-24T04:39:11.890Z,1606
2023-05-24T04:41:38.102Z,1774
2023-05-24T04:44:03.080Z,1935
2023-05-24T04:46:29.186Z,2003
2023-05-24T04:48:55.271Z,2060
2023-05-24T04:51:21.376Z,2108
2023-05-24T04:53:47.448Z,2104
2023-05-24T04:56:13.566Z,2264
2023-05-24T04:58:39.652Z,2401
2023-05-24T05:01:05.729Z,2505
2023-05-24T05:03:31.834Z,2566
2023-05-24T05:05:57.940Z,2666
2023-05-24T05:08:24.088Z,2835
2023-05-24T05:10:50.116Z,2831
2023-05-24T05:13:16.266Z,2903
2023-05-24T05:15:42.304Z,3007
2023-05-24T05:18:07.424Z,3100
2023-05-24T05:20:33.494Z,3059
2023-05-24T05:22:59.610Z,3043
2023-05-24T05:25:25.700Z,3059
2023-05-24T05:27:51.823Z,3116
2023-05-24T05:30:17.898Z,3200
2023-05-24T05:32:44.010Z,3357
2023-05-24T05:35:10.093Z,3449
2023-05-24T05:37:36.197Z,3610
2023-05-24T05:40:02.278Z,3923
2023-05-24T05:42:28.373Z,4108
2023-05-24T05:44:54.472Z,4148
2023-05-24T05:47:20.574Z,4272
2023-05-24T05:49:45.679Z,4401
2023-05-24T05:52:11.771Z,4614
2023-05-24T05:54:37.872Z,4915
2023-05-24T05:57:04.017Z,5244
2023-05-24T05:59:30.124Z,5465
2023-05-24T06:01:56.262Z,5621
2023-05-24T06:04:22.365Z,5698
2023-05-24T06:06:48.330Z,5662
2023-05-24T06:09:14.582Z,5903
2023-05-24T06:11:40.538Z,6324
2023-05-24T06:14:06.604Z,6718
2023-05-24T06:16:32.720Z,7059
2023-05-24T06:18:58.869Z,6971
2023-05-24T06:21:23.919Z,6806
2023-05-24T06:23:50.010Z,6870
2023-05-24T06:28:42.211Z,6762
2023-05-24T06:31:08.279Z,6778
2023-05-24T06:33:34.392Z,7063
2023-05-24T06:36:00.526Z,7240
2023-05-24T06:38:26.571Z,7633
2023-05-24T06:40:52.735Z,7866
2023-05-24T06:43:18.813Z,7758
2023-05-24T06:45:45.035Z,7690
2023-05-24T06:48:10.976Z,7706
2023-05-24T06:50:37.045Z,7979
2023-05-24T06:53:02.205Z,8549
2023-05-24T06:55:28.269Z,8878
2023-05-24T06:57:54.378Z,8838
2023-05-24T07:00:20.556Z,8477
2023-05-24T07:02:46.608Z,8119
2023-05-24T07:05:12.647Z,7951
2023-05-24T07:10:04.858Z,7481
2023-05-24T07:12:30.935Z,7035
2023-05-24T07:14:57.020Z,6686
2023-05-24T07:17:23.118Z,6806
2023-05-24T07:19:49.292Z,6959
2023-05-24T07:22:15.450Z,6818
2023-05-24T07:24:41.554Z,6473
2023-05-24T07:27:07.618Z,6300
2023-05-24T07:29:33.753Z,6405
2023-05-24T07:31:59.828Z,5927
2023-05-24T07:34:25.907Z,6208
2023-05-24T07:36:51.997Z,6372
2023-05-24T07:39:18.104Z,6919
2023-05-24T07:41:44.292Z,7734
2023-05-24T07:44:10.296Z,8252
2023-05-24T07:46:36.380Z,8770
2023-05-24T07:49:02.483Z,8991
2023-05-24T07:51:28.572Z,8999
2023-05-24T07:53:54.668Z,9135
2023-05-24T07:56:19.792Z,9605
2023-05-24T07:58:45.873Z,9846
2023-05-24T08:01:11.999Z,10368
2023-05-24T08:03:38.054Z,10219
2023-05-24T08:06:04.158Z,10031
2023-05-24T08:08:30.272Z,10649
2023-05-24T08:10:56.348Z,11733
2023-05-24T08:13:22.520Z,12143
2023-05-24T08:15:48.608Z,12553
2023-05-24T08:18:14.712Z,12275
2023-05-24T08:20:40.733Z,11906
2023-05-24T08:23:06.821Z,11251
2023-05-24T08:25:32.925Z,10677
2023-05-24T08:27:59.149Z,11448
2023-05-24T08:30:25.222Z,12842
2023-05-24T08:32:51.376Z,12103
2023-05-24T08:35:17.425Z,12055
2023-05-24T08:37:43.517Z,12717
2023-05-24T08:40:09.652Z,12685
2023-05-24T08:42:35.805Z,12324
2023-05-24T08:45:01.835Z,14645
2023-05-24T08:47:27.900Z,15086
2023-05-24T08:49:53.994Z,14311
2023-05-24T08:52:20.178Z,12918
2023-05-24T08:54:46.198Z,12416
2023-05-24T08:57:12.286Z,12336
2023-05-24T08:59:37.439Z,12175
2023-05-24T09:02:03.549Z,11653
2023-05-24T09:04:29.619Z,10886
2023-05-24T09:06:55.733Z,9043
2023-05-24T09:09:21.777Z,8151
2023-05-24T09:11:47.881Z,8878
2023-05-24T09:14:14.014Z,9384
2023-05-24T09:16:40.048Z,9272
2023-05-24T09:19:06.146Z,9942
2023-05-24T09:21:32.253Z,11304
2023-05-24T09:23:58.328Z,11649
2023-05-24T09:26:24.439Z,11496
2023-05-24T09:28:50.751Z,10854
2023-05-24T09:31:16.735Z,10139
2023-05-24T09:33:42.901Z,9738
2023-05-24T09:36:09.019Z,10207
2023-05-24T09:38:35.027Z,10304
2023-05-24T09:41:01.205Z,10428
2023-05-24T09:43:27.274Z,10601
2023-05-24T09:45:53.364Z,10854
2023-05-24T09:48:19.410Z,11404
2023-05-24T09:50:45.649Z,11336
2023-05-24T09:53:11.723Z,11316
2023-05-24T09:55:37.950Z,12348
2023-05-24T09:58:03.949Z,12946
2023-05-24T10:00:29.992Z,12818
2023-05-24T10:02:55.106Z,12388
2023-05-24T10:05:21.262Z,11657
2023-05-24T10:07:47.151Z,11191
2023-05-24T10:10:13.422Z,10998
2023-05-24T10:12:39.570Z,11243
2023-05-24T10:15:05.637Z,11099
2023-05-24T10:17:31.722Z,10850
2023-05-24T10:19:57.625Z,10545
2023-05-24T10:22:23.880Z,10336
2023-05-24T10:24:49.963Z,9910
2023-05-24T10:27:16.141Z,9517
2023-05-24T10:29:42.044Z,9107
2023-05-24T10:32:08.186Z,8890
2023-05-24T10:34:34.477Z,9079
2023-05-24T10:37:00.530Z,9244
2023-05-24T10:39:26.505Z,8902
2023-05-24T10:44:18.703Z,8115
2023-05-24T10:46:43.806Z,8384
2023-05-24T10:49:09.913Z,8914
2023-05-24T10:51:36.012Z,8967
2023-05-24T10:54:02.088Z,9697
2023-05-24T10:56:28.203Z,10296
2023-05-24T10:58:54.282Z,10557
2023-05-24T11:01:20.375Z,11211
2023-05-24T11:03:46.462Z,11127
2023-05-24T11:06:12.559Z,11428
2023-05-24T11:08:38.664Z,12308
2023-05-24T11:11:04.756Z,13569
2023-05-24T11:13:30.857Z,14464
2023-05-24T11:15:56.945Z,15717
2023-05-24T11:18:23.168Z,17765
2023-05-24T11:20:49.266Z,19050
2023-05-24T11:23:15.366Z,20817
2023-05-24T11:25:41.449Z,21556
2023-05-24T11:28:07.548Z,21491
2023-05-24T11:30:33.654Z,22744
2023-05-24T11:32:59.736Z,23162
2023-05-24T11:35:25.822Z,23580
2023-05-24T11:37:51.930Z,21845
2023-05-24T11:40:18.021Z,19885
2023-05-24T11:42:44.106Z,15741
2023-05-24T11:45:10.205Z,16580
2023-05-24T11:47:36.287Z,18954
2023-05-24T11:50:01.397Z,17861
2023-05-24T11:52:27.502Z,16351
2023-05-24T11:54:53.596Z,16729
2023-05-24T11:57:19.698Z,19725
2023-05-24T11:59:45.794Z,16653
2023-05-24T12:02:11.905Z,15452
2023-05-24T12:04:37.980Z,16074
2023-05-24T12:07:04.086Z,15946
2023-05-24T12:09:30.183Z,15175
2023-05-24T12:11:56.284Z,17018
2023-05-24T12:14:22.362Z,17155
2023-05-24T12:16:48.463Z,17669
2023-05-24T12:19:14.553Z,21427
2023-05-24T12:21:40.767Z,21973
2023-05-24T12:24:06.866Z,26696
2023-05-24T12:26:32.961Z,24190
2023-05-24T12:28:59.057Z,26696
2023-05-24T12:31:25.153Z,26985
2023-05-24T12:33:51.242Z,21845
2023-05-24T12:38:43.429Z,16990
2023-05-24T12:41:09.528Z,15512
2023-05-24T12:43:35.625Z,20945
2023-05-24T12:46:01.751Z,16002
2023-05-24T12:48:27.825Z,14572
2023-05-24T12:50:53.895Z,13332
2023-05-24T12:53:19.016Z,13649
2023-05-24T12:55:45.097Z,12998
2023-05-24T12:58:11.198Z,12737
2023-05-24T13:00:37.276Z,13753
2023-05-24T13:03:03.382Z,13348
2023-05-24T13:05:29.479Z,13986
2023-05-24T13:07:55.581Z,14107
2023-05-24T13:10:21.692Z,16705
2023-05-24T13:12:47.758Z,91461
2023-05-24T13:15:13.929Z,100392
2023-05-24T13:17:39.976Z,99460
2023-05-24T13:20:06.060Z,106624
2023-05-24T13:22:32.159Z,103636
2023-05-24T13:24:58.366Z,99974
2023-05-24T13:27:24.476Z,112728
2023-05-24T13:29:50.562Z,89276
2023-05-24T13:32:16.656Z,39000
2023-05-24T13:34:42.884Z,36398
2023-05-24T13:37:08.980Z,43240
2023-05-24T13:39:34.931Z,91364
2023-05-24T13:42:01.046Z,93710
2023-05-24T13:44:27.317Z,34856
2023-05-24T13:46:53.339Z,30519
2023-05-24T13:49:19.315Z,24254
2023-05-24T13:51:45.460Z,25893
2023-05-24T13:54:11.584Z,50661
2023-05-24T13:56:36.683Z,94609
2023-05-24T13:59:02.744Z,69069
2023-05-24T14:01:28.809Z,91975
2023-05-24T14:03:54.899Z,102448
2023-05-24T14:06:21.025Z,100456
2023-05-24T14:08:47.195Z,94288
2023-05-24T14:11:13.235Z,81245
2023-05-24T14:13:39.344Z,88120
2023-05-24T14:16:05.451Z,79831
2023-05-24T14:18:31.481Z,80667
2023-05-24T14:20:57.613Z,73824
2023-05-24T14:23:23.762Z,90561
2023-05-24T14:25:49.765Z,81470
2023-05-24T14:28:15.965Z,83269
2023-05-24T14:30:42.085Z,76362
2023-05-24T14:33:08.168Z,80281
2023-05-24T14:35:34.261Z,81020
2023-05-24T14:38:00.366Z,91621
2023-05-24T14:40:26.456Z,80088
2023-05-24T14:42:52.560Z,76876
2023-05-24T14:45:18.629Z,81855
2023-05-24T14:47:44.743Z,81438
2023-05-24T14:50:10.896Z,90883
2023-05-24T14:52:36.928Z,77165
2023-05-24T14:55:03.010Z,78000
2023-05-24T14:57:29.118Z,80731
2023-05-24T14:59:54.218Z,75334
2023-05-24T15:02:20.355Z,79863
2023-05-24T15:04:46.531Z,81309
2023-05-24T15:07:12.579Z,79606
2023-05-24T15:09:38.641Z,31739
2023-05-24T15:12:04.718Z,15649
2023-05-24T15:14:30.807Z,13645
2023-05-24T15:16:56.937Z,11476
2023-05-24T15:19:23.009Z,9830
2023-05-24T15:21:49.116Z,9175
2023-05-24T15:24:15.214Z,9031
2023-05-24T15:26:41.281Z,8975
2023-05-24T15:29:07.438Z,9232
2023-05-24T15:31:33.663Z,9987
2023-05-24T15:33:59.716Z,11163
2023-05-24T15:36:25.867Z,11533
2023-05-24T15:38:51.875Z,12689
2023-05-24T15:41:17.973Z,13010
2023-05-24T15:43:44.087Z,35755
2023-05-24T15:46:10.177Z,56187
2023-05-24T15:48:36.272Z,58147
2023-05-24T15:51:02.364Z,59817
2023-05-24T15:53:28.478Z,9436
2023-05-24T15:55:54.540Z,8754
2023-05-24T15:58:20.646Z,8762
2023-05-24T16:00:46.747Z,9007
2023-05-24T16:03:11.856Z,8950
2023-05-24T16:05:37.939Z,8641
2023-05-24T16:08:04.036Z,8938
2023-05-24T16:10:30.148Z,11456
2023-05-24T16:12:56.234Z,48413
2023-05-24T16:15:22.320Z,12022
2023-05-24T16:17:48.458Z,11910
2023-05-24T16:20:14.527Z,10191
2023-05-24T16:22:40.606Z,9352
2023-05-24T16:25:06.734Z,10762
2023-05-24T16:27:32.792Z,17026
2023-05-24T16:29:58.898Z,26985
2023-05-24T16:32:25.045Z,38550
2023-05-24T16:34:51.222Z,35402
2023-05-24T16:37:17.303Z,41763
2023-05-24T16:39:43.422Z,29844
2023-05-24T16:42:09.492Z,15789
2023-05-24T16:44:35.597Z,14388
2023-05-24T16:47:01.679Z,14641
2023-05-24T16:49:27.839Z,9766
2023-05-24T16:51:53.881Z,11814
2023-05-24T16:54:19.961Z,13412
2023-05-24T16:56:46.082Z,12436
2023-05-24T16:59:12.186Z,14215
2023-05-24T17:01:38.238Z,30454
2023-05-24T17:04:04.355Z,23066
2023-05-24T17:06:29.460Z,17733
2023-05-24T17:08:55.577Z,14380
2023-05-24T17:11:21.664Z,11360
2023-05-24T17:13:47.784Z,10248
2023-05-24T17:16:13.833Z,9412
2023-05-24T17:18:39.956Z,8525
2023-05-24T17:21:06.033Z,7750
2023-05-24T17:23:32.137Z,7332
2023-05-24T17:25:58.228Z,6999
2023-05-24T17:28:24.310Z,6910
2023-05-24T17:30:50.407Z,6886
2023-05-24T17:33:16.506Z,6690
2023-05-24T17:35:42.599Z,6698
2023-05-24T17:38:08.805Z,6453
2023-05-24T17:40:34.903Z,6035
2023-05-24T17:43:00.985Z,5662
2023-05-24T17:45:27.133Z,5409
2023-05-24T17:47:53.183Z,5264
2023-05-24T17:50:19.272Z,4987
2023-05-24T17:52:45.383Z,4758
2023-05-24T17:55:11.482Z,4614
2023-05-24T17:57:37.562Z,4401
2023-05-24T18:00:03.659Z,4132
2023-05-24T18:02:29.753Z,4252
2023-05-24T18:04:55.836Z,4164
2023-05-24T18:07:21.945Z,3875
2023-05-24T18:09:47.058Z,3674
2023-05-24T18:12:13.148Z,3365
2023-05-24T18:14:39.245Z,3104
2023-05-24T18:17:05.329Z,2875
2023-05-24T18:19:31.415Z,2610
2023-05-24T18:21:57.548Z,2405
2023-05-24T18:24:23.711Z,2268
2023-05-24T18:26:49.708Z,2076
2023-05-24T18:29:15.825Z,1883
2023-05-24T18:31:41.916Z,1750
2023-05-24T18:34:08.032Z,1606
2023-05-24T18:36:34.132Z,1453
2023-05-24T18:39:00.272Z,1305
2023-05-24T18:41:26.431Z,1188
2023-05-24T18:43:52.637Z,1084
2023-05-24T18:53:36.888Z,654
2023-05-24T18:56:02.009Z,562
2023-05-24T18:58:27.165Z,477
2023-05-24T19:00:53.235Z,401
2023-05-24T19:03:19.388Z,329
2023-05-24T19:05:45.509Z,269
2023-05-24T19:08:11.518Z,212
2023-05-24T19:10:37.617Z,172
2023-05-24T19:13:03.702Z,136
2023-05-24T19:15:29.850Z,108
2023-05-24T19:17:55.892Z,80
2023-05-24T19:20:21.009Z,60
2023-05-24T19:22:46.151Z,48
2023-05-24T19:25:12.210Z,36
2023-05-24T19:27:38.338Z,24
2023-05-24T19:30:04.400Z,20
2023-05-24T19:32:30.697Z,16
2023-05-24T19:34:56.613Z,12
2023-05-24T19:39:48.793Z,4
2023-05-24T19:42:14.899Z,4
2023-05-24T19:44:40.974Z,0
2023-05-24T19:47:07.084Z,4
2023-05-24T19:49:33.272Z,0
2023-05-24T19:51:59.250Z,0
2023-05-24T19:54:24.483Z,0
2023-05-24T19:56:50.556Z,0
2023-05-24T19:59:16.556Z,0
2023-05-24T20:01:42.716Z,0
2023-05-24T20:04:08.764Z,0
2023-05-24T20:06:34.916Z,0
2023-05-24T20:09:00.953Z,0
2023-05-24T20:11:27.134Z,0
2023-05-24T20:13:53.156Z,0
2023-05-24T20:16:19.322Z,0
2023-05-24T20:18:45.321Z,0
2023-05-24T20:21:11.421Z,0
2023-05-24T20:23:37.512Z,0
2023-05-24T20:26:02.659Z,0
2023-05-24T20:28:28.703Z,0
2023-05-24T20:30:54.809Z,0
2023-05-24T20:33:20.914Z,0
2023-05-24T20:35:46.993Z,0
2023-05-24T20:38:13.095Z,0
2023-05-24T20:40:39.216Z,0
2023-05-24T20:43:05.291Z,0
2023-05-24T20:45:31.443Z,0
2023-05-24T20:47:57.487Z,0
2023-05-24T20:50:23.587Z,0
2023-05-24T20:52:49.682Z,0
2023-05-24T20:55:15.768Z,0
2023-05-24T20:57:40.864Z,0
2023-05-24T21:00:06.967Z,0
2023-05-24T21:02:33.055Z,0
2023-05-24T21:04:59.160Z,0
2023-05-24T21:07:25.277Z,0
2023-05-24T21:09:51.339Z,0
2023-05-24T21:12:17.429Z,0
2023-05-24T21:14:43.544Z,0
2023-05-24T21:17:09.688Z,0
2023-05-24T21:19:35.773Z,0
2023-05-24T21:22:01.827Z,0
2023-05-24T21:24:27.914Z,0
2023-05-24T21:26:54.080Z,0
2023-05-24T21:29:19.125Z,0
2023-05-24T21:31:45.220Z,0
2023-05-24T21:34:11.388Z,0
2023-05-24T21:36:37.441Z,0
2023-05-24T21:39:03.508Z,0
2023-05-24T21:41:29.651Z,0
2023-05-24T21:43:55.682Z,0
2023-05-24T21:46:21.811Z,0
2023-05-24T21:48:47.899Z,0
2023-05-24T21:51:13.973Z,0
2023-05-24T21:53:40.137Z,0
2023-05-24T21:56:06.144Z,0
2023-05-24T21:58:32.293Z,0
2023-05-24T22:00:57.374Z,0
2023-05-24T22:03:23.455Z,0
2023-05-24T22:05:49.565Z,0
2023-05-24T22:08:15.652Z,0
2023-05-24T22:10:41.748Z,0
2023-05-24T22:13:07.846Z,0
2023-05-24T22:15:33.922Z,0
2023-05-24T22:18:00.047Z,0
2023-05-24T22:20:26.142Z,0
2023-05-24T22:22:52.221Z,0
2023-05-24T22:25:18.323Z,0
2023-05-24T22:27:44.408Z,0
2023-05-24T22:30:10.508Z,0
2023-05-24T22:32:35.601Z,0
2023-05-24T22:35:01.710Z,0
2023-05-24T22:37:27.809Z,0
2023-05-24T22:39:53.891Z,0
2023-05-24T22:42:19.990Z,0
2023-05-24T22:44:46.091Z,0
2023-05-24T22:47:12.180Z,0
2023-05-24T22:49:38.305Z,0
2023-05-24T22:52:04.427Z,0
2023-05-24T22:54:30.465Z,0
2023-05-24T22:56:56.561Z,0
2023-05-24T22:59:22.678Z,0
2023-05-24T23:01:48.874Z,0
2023-05-24T23:04:13.879Z,0
2023-05-24T23:06:39.971Z,0
2023-05-24T23:09:06.062Z,0
2023-05-24T23:11:32.148Z,0
2023-05-24T23:13:58.233Z,0
2023-05-24T23:16:24.332Z,0
2023-05-24T23:18:50.429Z,0
2023-05-24T23:21:16.572Z,0
2023-05-24T23:23:42.650Z,0
2023-05-24T23:26:08.727Z,0
2023-05-24T23:28:34.913Z,0
2023-05-24T23:31:00.910Z,0
2023-05-24T23:33:27.055Z,0
2023-05-24T23:35:52.126Z,0
2023-05-24T23:38:18.308Z,0
2023-05-24T23:40:44.369Z,0
2023-05-24T23:43:10.414Z,0
2023-05-24T23:45:36.504Z,0
2023-05-24T23:48:02.619Z,0
2023-05-24T23:50:28.687Z,0
2023-05-24T23:52:54.813Z,0
2023-05-24T23:55:20.882Z,0
2023-05-24T23:57:46.981Z,0
